Aeroporto :
LOGIN :

Iscrizione | Disclaimer

   EN    FR    IT 

 










Sommario :    VFR   VFR Marginale   IFR   IFR Intensivo   IFR Molto Intensivo
Visibilità : 
Base nubi : 
>= 8 km
>= 3000ft
5 / 8 km
1000 / 3000 ft
1500m / 5 km
500 / 1000 ft
800 / 1500m
200 / 500 ft
< 800m
< 200 ft
Simboli :   Temporali  Nebbia  Neve Forte  Precipitazioni Forti  Vento > 20 kt
SIGMETs :   Varie  Temporali  Ghiacco  Turbolenza  Onda orograficha  Ceneri Vulcaniche







- Altitudine del aeroporto : 1234 ft
- Codice IATA : LUX


ELLX - Luxembourg Findel

ULTIMO METAR :
  • 172220Z 18005KT 140V230 3000 RA SCT000 BKN001 16/16 Q1010 NOSIG

METARs OBSOLETI :
  • 172150Z 18006KT 2000 RA SCT000 BKN001 16/16 Q1011 NOSIG
  • 172120Z 17006KT 150V210 2000 RA SCT000 BKN001 16/16 Q1011 NOSIG
  • 172050Z 17006KT 150V210 2000 RA SCT001 BKN002 16/16 Q1011 NOSIG
  • 172020Z 17005KT 130V210 2000 -RA BR SCT000 BKN001 16/16 Q1011 RE/ NOSIG
  • 171950Z 17005KT 140V210 3000 -RA SCT001 BKN003 16/16 Q1011 RERA NOSIG

TAF TAF ELLX
Valido dal 17 a 18 ore il 19 a 00 ore UTC


171700Z 1718/1824 20010KT 9999 SCT006 BKN010
TEMPO 1718/1806 5500 -RA BR BKN006
PROB30
TEMPO 1802/1806 1200 BCFG OVC004
BECMG 1807/1809 24015G25KT
TEMPO 1810/1820 SHRA SCT015TCU
TEMPO 1811/1818 26020G35KT TSRA BKN012CB
ATIS : +352 4798 27300
Met : +352 4798 27010 / 27050
Nessun NOTAM noto per questo aeroporto.



MetMap, La meteo Aeronautica in un colpo d'occhio ! - Copyright ORBIFLY Dicembre 2007 - Disclaimer

ORBIFLY MET'MAP TEAM :

Programmazione e sviluppo : Alexandra Zaïnal
Concezione e sviluppo : Baudouin d'Aumeries
Co-Programmazione e sviluppo : Marc-Olivier Méhu
Supporto tecnico e logistico : Manuel Goepfert
Aiuto per la traduzione : Arnaldo La Scala

Contatto : metmap@orbifly.com




FONTI E CREDITI :

   NOAA